createdAt,value
2022-10-19T04:49:58.269Z,7.88
2022-10-19T04:50:08.982Z,0.00
2022-10-19T04:51:03.477Z,0.00
2022-10-19T04:52:03.011Z,0.00
2022-10-19T04:53:02.998Z,0.08
2022-10-19T04:54:02.994Z,0.08
2022-10-19T04:55:02.978Z,0.32
2022-10-19T04:56:02.958Z,0.00
2022-10-19T04:57:03.890Z,0.00
2022-10-19T04:58:02.926Z,0.12
2022-10-19T04:59:02.909Z,0.24
2022-10-19T05:00:02.939Z,0.04
2022-10-19T05:01:03.965Z,0.00
2022-10-19T05:02:02.897Z,0.00
2022-10-19T05:03:02.869Z,0.04
2022-10-19T05:04:02.854Z,0.00
2022-10-19T05:05:02.849Z,0.00
2022-10-19T05:06:02.820Z,0.00
2022-10-19T05:07:03.068Z,0.00
2022-10-19T05:08:02.792Z,0.00
2022-10-19T05:09:02.792Z,0.00
2022-10-19T05:10:03.545Z,0.20
2022-10-19T05:11:02.753Z,0.00
2022-10-19T05:12:02.739Z,0.00
2022-10-19T05:13:02.722Z,0.00
2022-10-19T05:14:03.672Z,0.00
2022-10-19T05:15:02.713Z,0.00
2022-10-19T05:16:02.694Z,0.28
2022-10-19T05:17:02.674Z,0.04
2022-10-19T05:18:02.994Z,0.00
2022-10-19T05:19:02.652Z,0.44
2022-10-19T05:20:02.645Z,0.00
2022-10-19T05:21:02.615Z,0.12
2022-10-19T05:22:02.605Z,0.32
2022-10-19T05:23:06.293Z,0.00
2022-10-19T05:24:02.585Z,0.24
2022-10-19T05:25:02.578Z,0.00
2022-10-19T05:26:02.555Z,0.04
2022-10-19T05:27:02.546Z,0.00
2022-10-19T05:28:02.528Z,0.12
2022-10-19T05:29:02.603Z,0.16
2022-10-19T05:30:02.514Z,0.32
2022-10-19T05:31:02.478Z,0.00
2022-10-19T05:32:02.467Z,0.00
2022-10-19T05:33:02.448Z,0.00
2022-10-19T05:34:02.472Z,0.00
2022-10-19T05:35:02.479Z,0.00
2022-10-19T05:36:02.416Z,0.04
2022-10-19T05:37:02.398Z,0.00
2022-10-19T05:38:02.387Z,0.00
2022-10-19T05:39:02.381Z,0.04
2022-10-19T05:40:02.372Z,0.44
2022-10-19T05:41:02.344Z,0.00
2022-10-19T05:42:02.360Z,0.00
2022-10-19T05:43:02.327Z,0.00
2022-10-19T05:44:02.309Z,0.00
2022-10-19T05:45:02.310Z,0.00
2022-10-19T05:46:02.280Z,0.00
2022-10-19T05:47:02.309Z,0.00
2022-10-19T05:48:02.253Z,0.00
2022-10-19T05:49:02.245Z,0.04
2022-10-19T05:50:02.241Z,0.00
2022-10-19T05:51:02.234Z,0.12
2022-10-19T05:52:02.220Z,0.00
2022-10-19T05:53:02.220Z,0.00
2022-10-19T05:54:02.177Z,0.00
2022-10-19T05:55:02.173Z,0.00
2022-10-19T05:56:02.154Z,0.00
2022-10-19T05:57:02.140Z,0.00
2022-10-19T05:58:02.123Z,0.00
2022-10-19T05:59:02.105Z,0.00
2022-10-19T06:00:02.104Z,0.00
2022-10-19T06:01:02.085Z,0.00
2022-10-19T06:02:02.101Z,0.04
2022-10-19T06:03:02.084Z,0.00
2022-10-19T06:04:02.056Z,0.00
2022-10-19T06:05:02.032Z,0.00
2022-10-19T06:06:02.015Z,0.00
2022-10-19T06:07:02.947Z,0.00
2022-10-19T06:08:01.986Z,0.00
2022-10-19T06:09:01.976Z,0.00
2022-10-19T06:10:01.966Z,0.00
2022-10-19T06:11:01.947Z,0.00
2022-10-19T06:12:01.933Z,0.00
2022-10-19T06:13:01.917Z,0.00
2022-10-19T06:14:01.920Z,0.00
2022-10-19T06:15:01.901Z,0.00
2022-10-19T06:16:01.885Z,0.00
2022-10-19T06:17:01.868Z,0.00
2022-10-19T06:18:01.868Z,0.00
2022-10-19T06:19:01.841Z,0.00
2022-10-19T06:20:01.829Z,0.00
2022-10-19T06:21:01.808Z,0.00
2022-10-19T06:22:01.808Z,0.00
2022-10-19T06:23:01.790Z,0.00
2022-10-19T06:24:01.781Z,0.00
2022-10-19T06:25:01.751Z,0.00
2022-10-19T06:26:01.749Z,0.00
2022-10-19T06:27:01.739Z,0.00
2022-10-19T06:28:01.721Z,0.00
2022-10-19T06:29:01.711Z,0.04
2022-10-19T06:30:01.702Z,0.00
2022-10-19T06:31:01.775Z,0.00
2022-10-19T06:32:01.662Z,0.00
2022-10-19T06:34:01.712Z,0.00
2022-10-19T06:35:01.622Z,0.00
2022-10-19T06:36:01.613Z,0.00
2022-10-19T06:37:01.603Z,0.00
2022-10-19T06:38:01.584Z,0.00
2022-10-19T06:39:01.665Z,0.00
2022-10-19T06:40:04.865Z,0.00
2022-10-19T06:41:02.564Z,0.00
2022-10-19T06:42:01.538Z,0.00
2022-10-19T06:43:01.515Z,0.00
2022-10-19T06:44:01.543Z,0.00
2022-10-19T06:45:01.494Z,0.08
2022-10-19T06:46:01.488Z,0.16
2022-10-19T06:47:01.462Z,0.00
2022-10-19T06:48:03.669Z,0.00
2022-10-19T06:49:02.444Z,0.00
2022-10-19T06:50:01.436Z,0.00
2022-10-19T06:51:01.409Z,0.00
2022-10-19T06:52:01.398Z,0.56
2022-10-19T06:53:01.397Z,0.20
2022-10-19T06:54:01.400Z,0.04
2022-10-19T06:55:01.388Z,0.24
2022-10-19T06:56:02.295Z,0.04
2022-10-19T06:57:01.367Z,0.00
2022-10-19T06:58:01.315Z,0.00
2022-10-19T06:59:01.322Z,0.00
2022-10-19T07:00:01.298Z,0.00
2022-10-19T07:01:01.320Z,0.00
2022-10-19T07:02:01.259Z,0.00
2022-10-19T07:03:01.250Z,0.00
2022-10-19T07:04:01.252Z,0.00
2022-10-19T07:05:06.134Z,0.00
2022-10-19T07:06:02.218Z,0.00
2022-10-19T07:07:02.141Z,0.32
2022-10-19T07:08:01.238Z,0.00
2022-10-19T07:09:01.181Z,0.00
2022-10-19T07:10:02.108Z,0.00
2022-10-19T07:11:01.151Z,0.08
2022-10-19T07:12:01.132Z,0.00
2022-10-19T07:13:01.153Z,0.28
2022-10-19T07:14:01.113Z,0.08
2022-10-19T07:15:01.094Z,0.12
2022-10-19T07:16:01.081Z,0.04
2022-10-19T07:17:01.063Z,0.00
2022-10-19T07:18:01.054Z,0.00
2022-10-19T07:19:01.063Z,0.12
2022-10-19T07:20:01.033Z,0.20
2022-10-19T07:21:01.022Z,0.16
2022-10-19T07:22:01.004Z,0.04
2022-10-19T07:23:00.988Z,0.40
2022-10-19T07:24:00.978Z,0.00
2022-10-19T07:25:00.956Z,0.00
2022-10-19T07:26:00.945Z,0.00
2022-10-19T07:27:00.926Z,0.00
2022-10-19T07:28:00.916Z,0.08
2022-10-19T07:29:00.918Z,0.00
2022-10-19T07:30:00.893Z,0.08
2022-10-19T07:31:00.884Z,0.00
2022-10-19T07:32:01.101Z,0.12
2022-10-19T07:33:00.908Z,0.04
2022-10-19T07:34:00.858Z,0.20
2022-10-19T07:35:00.831Z,0.28
2022-10-19T07:36:00.848Z,0.04
2022-10-19T07:37:00.820Z,0.12
2022-10-19T07:38:00.778Z,0.00
2022-10-19T07:39:00.789Z,0.00
2022-10-19T07:40:00.759Z,0.40
2022-10-19T07:41:01.699Z,0.24
2022-10-19T07:42:00.729Z,0.08
2022-10-19T07:43:00.730Z,0.00
2022-10-19T07:44:00.700Z,0.32
2022-10-19T07:45:00.692Z,0.00
2022-10-19T07:46:00.680Z,0.16
2022-10-19T07:47:00.668Z,0.00
2022-10-19T07:48:00.661Z,0.04
2022-10-19T07:49:00.650Z,0.36
2022-10-19T07:50:00.623Z,0.24
2022-10-19T07:51:00.622Z,0.00
2022-10-19T07:52:00.594Z,0.36
2022-10-19T07:53:00.592Z,0.28
2022-10-19T07:54:00.571Z,0.52
2022-10-19T07:55:00.563Z,0.04
2022-10-19T07:56:00.544Z,0.00
2022-10-19T07:57:00.543Z,0.12
2022-10-19T07:58:00.526Z,0.20
2022-10-19T07:59:00.506Z,0.20
2022-10-19T08:00:00.485Z,0.24
2022-10-19T08:01:00.483Z,0.00
2022-10-19T08:02:00.506Z,0.00
2022-10-19T08:03:43.187Z,0.36
2022-10-19T08:05:05.077Z,0.04
2022-10-19T08:06:01.414Z,0.20
2022-10-19T08:07:00.405Z,0.40
2022-10-19T08:08:01.337Z,0.08
2022-10-19T08:09:00.428Z,0.00
2022-10-19T08:10:00.367Z,0.16
2022-10-19T08:11:00.355Z,0.08
2022-10-19T08:12:00.349Z,0.00
2022-10-19T08:13:00.335Z,0.00
2022-10-19T08:14:01.276Z,0.08
2022-10-19T08:15:00.316Z,0.00
2022-10-19T08:16:00.275Z,0.36
2022-10-19T08:17:00.270Z,0.40
2022-10-19T08:18:00.258Z,0.56
2022-10-19T08:19:00.239Z,0.36
2022-10-19T08:20:00.220Z,0.00
2022-10-19T08:21:00.210Z,0.00
2022-10-19T08:22:00.196Z,0.00
2022-10-19T08:23:00.216Z,0.16
2022-10-19T08:24:01.147Z,0.44
2022-10-19T08:25:00.162Z,0.00
2022-10-19T08:26:00.163Z,0.00
2022-10-19T08:27:00.142Z,0.04
2022-10-19T08:28:00.122Z,0.00
2022-10-19T08:29:00.126Z,0.24
2022-10-19T08:30:00.111Z,1.24
2022-10-19T08:31:00.093Z,0.16
2022-10-19T08:32:00.074Z,0.00
2022-10-19T08:33:00.097Z,0.00
2022-10-19T08:34:00.040Z,0.04
2022-10-19T08:35:00.034Z,1.32
2022-10-19T08:36:00.005Z,0.72
2022-10-19T08:37:00.003Z,0.72
2022-10-19T08:38:02.749Z,1.08
2022-10-19T08:38:59.974Z,0.52
2022-10-19T08:39:59.956Z,0.00
2022-10-19T08:41:00.906Z,0.00
2022-10-19T08:41:59.930Z,0.12
2022-10-19T08:42:59.926Z,0.56
2022-10-19T08:43:59.895Z,2.24
2022-10-19T08:44:59.896Z,1.12
2022-10-19T08:45:59.876Z,0.16
2022-10-19T08:47:02.404Z,0.00
2022-10-19T08:47:59.854Z,0.04
2022-10-19T08:48:59.897Z,0.00
2022-10-19T08:49:59.818Z,0.00
2022-10-19T08:50:59.814Z,0.04
2022-10-19T08:51:59.873Z,0.28
2022-10-19T08:52:59.792Z,0.00
2022-10-19T08:53:59.770Z,0.04
2022-10-19T08:54:59.762Z,0.00
2022-10-19T08:56:04.602Z,0.00
2022-10-19T08:56:59.731Z,0.00
2022-10-19T08:57:59.731Z,0.48
2022-10-19T08:58:59.711Z,0.00
2022-10-19T08:59:59.701Z,0.00
2022-10-19T09:00:59.681Z,0.00
2022-10-19T09:01:59.670Z,0.00
2022-10-19T09:02:59.658Z,0.00
2022-10-19T09:04:03.492Z,0.00
2022-10-19T09:04:59.621Z,0.00
2022-10-19T09:05:59.612Z,0.00
2022-10-19T09:06:59.611Z,0.00
2022-10-19T09:07:59.582Z,0.12
2022-10-19T09:08:59.631Z,0.52
2022-10-19T09:09:59.558Z,0.00
2022-10-19T09:10:59.554Z,0.00
2022-10-19T09:11:59.558Z,0.04
2022-10-19T09:12:59.564Z,0.00
2022-10-19T09:14:05.203Z,0.28
2022-10-19T09:15:00.535Z,0.00
2022-10-19T09:15:59.483Z,0.00
2022-10-19T09:16:59.504Z,0.40
2022-10-19T09:18:00.395Z,0.48
2022-10-19T09:18:59.446Z,0.04
2022-10-19T09:19:59.445Z,0.16
2022-10-19T09:20:59.416Z,0.04
2022-10-19T09:21:59.406Z,0.04
2022-10-19T09:23:01.378Z,0.00
2022-10-19T09:23:59.377Z,0.00
2022-10-19T09:24:59.368Z,0.00
2022-10-19T09:25:59.348Z,0.00
2022-10-19T09:27:00.218Z,0.00
2022-10-19T09:27:59.358Z,0.20
2022-10-19T09:29:00.259Z,0.32
2022-10-19T09:29:59.289Z,0.00
2022-10-19T09:30:59.289Z,0.00
2022-10-19T09:32:00.356Z,0.28
2022-10-19T09:32:59.261Z,0.36
2022-10-19T09:33:59.240Z,0.00
2022-10-19T09:34:59.230Z,0.04
2022-10-19T09:35:59.211Z,0.04
2022-10-19T09:36:59.254Z,0.16
2022-10-19T09:37:59.182Z,0.56
2022-10-19T09:38:59.171Z,0.00
2022-10-19T09:39:59.164Z,0.40
2022-10-19T09:40:59.152Z,0.48
2022-10-19T09:41:59.142Z,0.76
2022-10-19T09:42:59.124Z,0.16
2022-10-19T09:43:59.114Z,0.20
2022-10-19T09:44:59.099Z,0.48
2022-10-19T09:45:59.081Z,0.52
2022-10-19T09:46:59.083Z,0.44
2022-10-19T09:48:08.616Z,0.52
2022-10-19T09:49:00.046Z,0.00
2022-10-19T09:49:59.025Z,0.68
2022-10-19T09:50:59.035Z,0.16
2022-10-19T09:51:59.004Z,0.44
2022-10-19T09:52:58.998Z,0.00
2022-10-19T09:53:58.977Z,0.00
2022-10-19T09:54:58.973Z,1.32
2022-10-19T09:55:58.964Z,0.88
2022-10-19T09:56:58.955Z,1.20
2022-10-19T09:57:58.927Z,0.32
2022-10-19T09:58:58.944Z,0.40
2022-10-19T09:59:58.927Z,0.84
2022-10-19T10:00:59.138Z,0.92
2022-10-19T10:01:58.917Z,0.44
2022-10-19T10:02:58.869Z,1.00
2022-10-19T10:03:58.859Z,0.36
2022-10-19T10:04:58.840Z,1.28
2022-10-19T10:05:58.830Z,0.52
2022-10-19T10:06:58.816Z,0.12
2022-10-19T10:07:58.816Z,0.28
2022-10-19T10:08:58.823Z,0.08
2022-10-19T10:09:58.768Z,0.20
2022-10-19T10:10:58.763Z,0.88
2022-10-19T10:11:59.701Z,0.48
2022-10-19T10:12:58.732Z,0.52
2022-10-19T10:13:58.712Z,0.68
2022-10-19T10:14:58.705Z,0.28
2022-10-19T10:15:58.692Z,1.60
2022-10-19T10:16:58.684Z,1.32
2022-10-19T10:17:59.603Z,0.80
2022-10-19T10:18:58.646Z,0.44
2022-10-19T10:19:58.632Z,0.72
2022-10-19T10:20:58.639Z,1.08
2022-10-19T10:21:59.561Z,1.80
2022-10-19T10:22:58.603Z,1.16
2022-10-19T10:24:00.887Z,0.76
2022-10-19T10:24:58.575Z,0.28
2022-10-19T10:25:58.565Z,0.44
2022-10-19T10:26:58.608Z,1.28
2022-10-19T10:27:58.526Z,1.76
2022-10-19T10:29:01.312Z,0.88
2022-10-19T10:29:58.500Z,1.60
2022-10-19T10:30:58.508Z,1.28
2022-10-19T10:31:59.426Z,0.40
2022-10-19T10:33:04.747Z,0.92
2022-10-19T10:34:06.487Z,0.32
2022-10-19T10:35:01.267Z,0.04
2022-10-19T10:35:58.430Z,0.00
2022-10-19T10:36:58.409Z,0.32
2022-10-19T10:37:58.400Z,0.60
2022-10-19T10:38:58.487Z,1.56
2022-10-19T10:40:02.106Z,0.96
2022-10-19T10:40:59.370Z,1.16
2022-10-19T10:41:58.350Z,1.16
2022-10-19T10:42:58.341Z,0.96
2022-10-19T10:44:00.834Z,0.16
2022-10-19T10:44:59.308Z,0.44
2022-10-19T10:45:58.324Z,0.72
2022-10-19T10:46:59.266Z,0.32
2022-10-19T10:47:58.321Z,0.60
2022-10-19T10:48:58.256Z,0.00
2022-10-19T10:49:58.273Z,0.84
2022-10-19T10:50:58.231Z,0.40
2022-10-19T10:51:58.213Z,1.16
2022-10-19T10:52:58.204Z,1.12
2022-10-19T10:53:58.189Z,1.24
2022-10-19T10:54:58.199Z,2.12
2022-10-19T10:55:58.155Z,0.20
2022-10-19T10:57:01.855Z,1.36
2022-10-19T10:57:59.134Z,0.64
2022-10-19T10:58:58.127Z,2.16
2022-10-19T10:59:58.121Z,0.08
2022-10-19T11:00:58.097Z,0.92
2022-10-19T11:01:58.145Z,0.36
2022-10-19T11:02:58.068Z,0.92
2022-10-19T11:03:58.050Z,1.56
2022-10-19T11:04:58.062Z,1.24
2022-10-19T11:05:58.031Z,1.80
2022-10-19T11:06:58.026Z,1.16
2022-10-19T11:07:58.011Z,1.48
2022-10-19T11:08:58.030Z,2.12
2022-10-19T11:09:59.487Z,1.12
2022-10-19T11:10:57.956Z,0.00
2022-10-19T11:11:57.950Z,1.64
2022-10-19T11:12:57.930Z,0.40
2022-10-19T11:13:57.941Z,0.88
2022-10-19T11:14:57.928Z,0.96
2022-10-19T11:15:57.901Z,1.56
2022-10-19T11:16:57.877Z,1.32
2022-10-19T11:17:57.873Z,1.88
2022-10-19T11:18:57.863Z,1.00
2022-10-19T11:19:57.847Z,0.48
2022-10-19T11:20:57.851Z,1.00
2022-10-19T11:21:57.819Z,0.24
2022-10-19T11:22:57.804Z,0.12
2022-10-19T11:23:57.804Z,0.60
2022-10-19T11:24:59.265Z,0.08
2022-10-19T11:25:58.576Z,0.76
2022-10-19T11:26:58.555Z,0.96
2022-10-19T11:27:57.744Z,1.12
2022-10-19T11:28:57.736Z,1.88
2022-10-19T11:29:57.712Z,0.68
2022-10-19T11:30:57.701Z,1.24
2022-10-19T11:31:57.737Z,0.00
2022-10-19T11:32:57.682Z,0.36
2022-10-19T11:33:57.671Z,1.72
2022-10-19T11:34:57.648Z,1.20
2022-10-19T11:35:57.627Z,0.36
2022-10-19T11:36:57.662Z,0.12
2022-10-19T11:38:18.003Z,0.00
2022-10-19T11:38:58.597Z,1.32
2022-10-19T11:39:57.589Z,1.20
2022-10-19T11:41:16.993Z,0.00
2022-10-19T11:41:58.559Z,0.24
2022-10-19T11:42:57.540Z,2.32
2022-10-19T11:43:57.537Z,0.08
2022-10-19T11:44:57.527Z,0.08
2022-10-19T11:45:57.497Z,1.20
2022-10-19T11:46:57.490Z,0.32
2022-10-19T11:47:57.478Z,1.12
2022-10-19T11:48:57.472Z,1.04
2022-10-19T11:49:57.518Z,0.88
2022-10-19T11:51:04.094Z,1.60
2022-10-19T11:51:59.383Z,1.32
2022-10-19T11:52:58.260Z,0.20
2022-10-19T11:53:57.410Z,1.76
2022-10-19T11:54:57.399Z,2.48
2022-10-19T11:55:57.374Z,3.44
2022-10-19T11:57:03.510Z,2.64
2022-10-19T11:57:58.351Z,0.80
2022-10-19T11:58:57.335Z,1.80
2022-10-19T12:00:03.836Z,1.24
2022-10-19T12:00:58.326Z,3.76
2022-10-19T12:01:57.321Z,2.08
2022-10-19T12:03:01.482Z,4.84
2022-10-19T12:03:58.271Z,3.84
2022-10-19T12:04:57.247Z,2.68
2022-10-19T12:05:57.243Z,2.76
2022-10-19T12:06:57.274Z,2.92
2022-10-19T12:07:57.217Z,4.04
2022-10-19T12:08:57.244Z,1.36
2022-10-19T12:09:57.185Z,2.52
2022-10-19T12:10:57.159Z,2.68
2022-10-19T12:11:57.157Z,1.44
2022-10-19T12:12:57.149Z,2.88
2022-10-19T12:13:57.150Z,2.92
2022-10-19T12:14:57.117Z,4.36
2022-10-19T12:15:57.120Z,2.28
2022-10-19T12:16:59.133Z,3.08
2022-10-19T12:17:57.091Z,3.92
2022-10-19T12:18:57.060Z,1.96
2022-10-19T12:19:57.061Z,2.12
2022-10-19T12:20:57.037Z,1.68
2022-10-19T12:21:57.028Z,1.52
2022-10-19T12:22:57.031Z,1.76
2022-10-19T12:23:57.043Z,1.80
2022-10-19T12:24:57.011Z,2.24
2022-10-19T12:25:56.973Z,0.72
2022-10-19T12:26:56.958Z,1.76
2022-10-19T12:27:56.972Z,2.76
2022-10-19T12:28:56.962Z,3.68
2022-10-19T12:29:56.934Z,1.84
2022-10-19T12:30:56.915Z,2.28
2022-10-19T12:31:56.927Z,3.96
2022-10-19T12:32:56.912Z,2.96
2022-10-19T12:33:56.884Z,3.16
2022-10-19T12:34:56.855Z,1.60
2022-10-19T12:35:56.846Z,1.84
2022-10-19T12:36:56.836Z,1.52
2022-10-19T12:37:57.775Z,1.60
2022-10-19T12:39:00.230Z,0.72
2022-10-19T12:39:56.797Z,1.60
2022-10-19T12:40:56.781Z,1.56
2022-10-19T12:41:56.780Z,2.24
2022-10-19T12:42:56.760Z,1.76
2022-10-19T12:43:56.739Z,1.20
2022-10-19T12:44:58.683Z,1.32
2022-10-19T12:45:56.719Z,1.20
2022-10-19T12:47:00.057Z,2.00
2022-10-19T12:47:56.700Z,2.48
2022-10-19T12:48:56.670Z,1.48
2022-10-19T12:49:56.672Z,1.72
2022-10-19T12:50:56.641Z,3.08
2022-10-19T12:51:56.651Z,2.32
2022-10-19T12:52:56.615Z,1.04
2022-10-19T12:53:56.609Z,1.96
2022-10-19T12:54:56.596Z,1.76
2022-10-19T12:55:56.581Z,2.24
2022-10-19T12:56:56.575Z,1.80
2022-10-19T12:57:56.552Z,2.48
2022-10-19T12:58:56.544Z,2.44
2022-10-19T12:59:57.487Z,1.80
2022-10-19T13:00:56.554Z,0.84
2022-10-19T13:01:56.514Z,1.84
2022-10-19T13:02:57.443Z,2.20
2022-10-19T13:03:56.471Z,2.96
2022-10-19T13:04:56.507Z,2.24
2022-10-19T13:05:57.404Z,1.04
2022-10-19T13:06:56.435Z,1.56
2022-10-19T13:07:56.432Z,1.48
2022-10-19T13:08:56.436Z,2.08
2022-10-19T13:09:56.409Z,4.12
2022-10-19T13:10:56.396Z,3.24
2022-10-19T13:11:56.397Z,2.88
2022-10-19T13:12:56.361Z,1.52
2022-10-19T13:13:56.341Z,0.36
2022-10-19T13:14:56.357Z,0.00
2022-10-19T13:15:57.286Z,0.00
2022-10-19T13:16:56.297Z,0.00
2022-10-19T13:17:56.290Z,0.00
2022-10-19T13:18:56.298Z,0.56
2022-10-19T13:19:56.288Z,0.64
2022-10-19T13:20:56.259Z,1.60
2022-10-19T13:21:56.238Z,0.00
2022-10-19T13:22:56.220Z,0.04
2022-10-19T13:23:56.201Z,0.48
2022-10-19T13:24:56.200Z,0.04
2022-10-19T13:25:56.187Z,1.12
2022-10-19T13:26:56.171Z,0.92
2022-10-19T13:27:56.168Z,2.28
2022-10-19T13:28:56.131Z,1.88
2022-10-19T13:29:56.121Z,1.96
2022-10-19T13:31:03.260Z,2.64
2022-10-19T13:31:57.104Z,2.04
2022-10-19T13:32:56.092Z,2.36
2022-10-19T13:33:56.093Z,2.60
2022-10-19T13:34:56.063Z,1.24
2022-10-19T13:35:56.151Z,1.00
2022-10-19T13:36:56.993Z,2.12
2022-10-19T13:37:56.032Z,1.92
2022-10-19T13:38:56.005Z,1.48
2022-10-19T13:39:56.001Z,2.04
2022-10-19T13:40:55.985Z,0.72
2022-10-19T13:41:55.986Z,2.40
2022-10-19T13:42:55.957Z,1.08
2022-10-19T13:43:55.936Z,1.88
2022-10-19T13:44:55.926Z,1.56
2022-10-19T13:45:55.926Z,0.88
2022-10-19T13:46:55.946Z,2.92
2022-10-19T13:47:55.893Z,2.96
2022-10-19T13:48:55.867Z,2.80
2022-10-19T13:49:55.867Z,1.84
2022-10-19T13:50:55.869Z,1.92
2022-10-19T13:51:55.866Z,2.88
2022-10-19T13:52:55.818Z,1.48
2022-10-19T13:53:55.828Z,0.84
2022-10-19T13:54:55.789Z,1.32
2022-10-19T13:55:55.800Z,3.56
2022-10-19T13:56:55.848Z,2.96
2022-10-19T13:57:57.023Z,4.20
2022-10-19T13:58:55.740Z,4.52
2022-10-19T13:59:55.731Z,2.72
2022-10-19T14:00:55.748Z,3.24
2022-10-19T14:01:55.771Z,1.76
2022-10-19T14:02:55.698Z,1.80
2022-10-19T14:03:55.682Z,2.96
2022-10-19T14:04:55.663Z,1.84
2022-10-19T14:05:55.713Z,1.56
2022-10-19T14:06:55.724Z,2.00
2022-10-19T14:07:55.643Z,1.88
2022-10-19T14:08:55.682Z,2.40
2022-10-19T14:09:55.624Z,2.52
2022-10-19T14:11:01.213Z,1.40
2022-10-19T14:11:56.575Z,0.76
2022-10-19T14:12:55.564Z,0.84
2022-10-19T14:13:55.554Z,0.76
2022-10-19T14:14:55.547Z,2.76
2022-10-19T14:15:56.470Z,2.80
2022-10-19T14:16:58.260Z,2.60
2022-10-19T14:17:56.494Z,1.72
2022-10-19T14:18:55.476Z,1.88
2022-10-19T14:19:55.546Z,1.32
2022-10-19T14:20:55.449Z,2.40
2022-10-19T14:21:55.437Z,2.04
2022-10-19T14:22:55.446Z,1.68
2022-10-19T14:23:55.423Z,0.92
2022-10-19T14:24:55.409Z,1.12
2022-10-19T14:25:55.388Z,2.48
2022-10-19T14:26:55.409Z,2.44
2022-10-19T14:27:55.369Z,0.68
2022-10-19T14:28:55.346Z,0.80
2022-10-19T14:29:55.348Z,1.00
2022-10-19T14:30:55.315Z,1.12
2022-10-19T14:31:55.317Z,0.64
2022-10-19T14:32:58.082Z,1.60
2022-10-19T14:33:56.287Z,3.12
2022-10-19T14:34:55.324Z,0.68
2022-10-19T14:35:55.257Z,0.20
2022-10-19T14:36:55.321Z,2.56
2022-10-19T14:37:55.231Z,1.12
2022-10-19T14:38:55.222Z,1.92
2022-10-19T14:39:55.224Z,2.00
2022-10-19T14:40:55.238Z,1.44
2022-10-19T14:41:55.192Z,1.84
2022-10-19T14:42:55.161Z,1.00
2022-10-19T14:43:55.152Z,0.16
2022-10-19T14:44:55.177Z,1.76
2022-10-19T14:45:55.123Z,2.64
2022-10-19T14:46:55.113Z,2.40
2022-10-19T14:47:55.104Z,1.16
2022-10-19T14:48:55.091Z,1.40
2022-10-19T14:49:55.325Z,2.32
2022-10-19T14:50:55.074Z,2.80
2022-10-19T14:51:55.066Z,1.08
2022-10-19T14:52:55.047Z,1.00
2022-10-19T14:53:55.065Z,0.84
2022-10-19T14:54:55.020Z,2.48
2022-10-19T14:55:55.016Z,4.12
2022-10-19T14:56:54.987Z,2.76
2022-10-19T14:57:54.981Z,4.04
2022-10-19T14:58:54.970Z,2.64
2022-10-19T14:59:54.969Z,3.28
2022-10-19T15:00:54.927Z,1.44
2022-10-19T15:01:54.970Z,3.28
2022-10-19T15:02:54.908Z,1.12
2022-10-19T15:03:55.903Z,2.48
2022-10-19T15:04:54.899Z,2.64
2022-10-19T15:05:54.865Z,1.72
2022-10-19T15:06:54.845Z,2.28
2022-10-19T15:07:54.841Z,0.68
2022-10-19T15:09:54.817Z,0.32
2022-10-19T15:10:54.792Z,1.28
2022-10-19T15:11:54.780Z,1.48
2022-10-19T15:12:54.768Z,2.96
2022-10-19T15:13:54.761Z,1.92
2022-10-19T15:14:54.992Z,2.56
2022-10-19T15:15:54.737Z,3.20
2022-10-19T15:16:54.721Z,2.68
2022-10-19T15:17:55.009Z,1.52
2022-10-19T15:18:54.775Z,2.04
2022-10-19T15:19:54.691Z,2.64
2022-10-19T15:21:11.286Z,2.28
2022-10-19T15:21:55.662Z,1.24
2022-10-19T15:22:54.633Z,0.24
2022-10-19T15:23:55.579Z,0.48
2022-10-19T15:24:54.635Z,0.88
2022-10-19T15:25:54.590Z,0.76
2022-10-19T15:27:06.427Z,1.04
2022-10-19T15:27:55.561Z,0.48
2022-10-19T15:28:54.565Z,0.84
2022-10-19T15:29:54.545Z,0.32
2022-10-19T15:30:54.533Z,0.40
2022-10-19T15:31:54.524Z,0.32
2022-10-19T15:32:54.538Z,0.36
2022-10-19T15:33:55.466Z,0.56
2022-10-19T15:34:54.482Z,0.24
2022-10-19T15:35:54.489Z,0.04
2022-10-19T15:36:54.465Z,0.00
2022-10-19T15:37:54.470Z,0.00
2022-10-19T15:39:01.875Z,0.44
2022-10-19T15:39:55.418Z,0.00
2022-10-19T15:40:54.407Z,0.68
2022-10-19T15:41:55.329Z,1.68
2022-10-19T15:42:55.866Z,2.52
2022-10-19T15:43:54.351Z,0.56
2022-10-19T15:44:54.349Z,2.80
2022-10-19T15:45:54.340Z,1.64
2022-10-19T15:46:54.561Z,3.92
2022-10-19T15:47:54.321Z,3.12
2022-10-19T15:48:55.464Z,1.88
2022-10-19T15:49:54.283Z,2.92
2022-10-19T15:50:54.261Z,3.64
2022-10-19T15:51:54.261Z,2.00
2022-10-19T15:52:54.235Z,2.32
2022-10-19T15:53:54.227Z,4.32
2022-10-19T15:54:54.223Z,2.88
2022-10-19T15:55:54.235Z,1.32
2022-10-19T15:56:54.184Z,0.08
2022-10-19T15:57:54.206Z,0.00
2022-10-19T15:58:54.204Z,0.00
2022-10-19T15:59:54.140Z,0.28
2022-10-19T16:00:54.140Z,0.00
2022-10-19T16:01:56.050Z,0.00
2022-10-19T16:02:54.102Z,0.00
2022-10-19T16:03:54.095Z,0.00
2022-10-19T16:04:54.169Z,0.00
2022-10-19T16:05:54.063Z,0.00
2022-10-19T16:06:54.049Z,0.00
2022-10-19T16:07:54.035Z,0.00
2022-10-19T16:08:55.016Z,0.00
2022-10-19T16:09:54.024Z,0.00
2022-10-19T16:10:54.006Z,0.72
2022-10-19T16:11:53.976Z,0.40
2022-10-19T16:12:53.967Z,0.88
2022-10-19T16:13:54.215Z,1.24
2022-10-19T16:14:54.033Z,1.08
2022-10-19T16:16:01.442Z,0.92
2022-10-19T16:16:54.912Z,1.24
2022-10-19T16:17:53.898Z,0.56
2022-10-19T16:18:53.891Z,0.88
2022-10-19T16:19:53.875Z,0.20
2022-10-19T16:20:53.864Z,0.48
2022-10-19T16:21:53.844Z,0.64
2022-10-19T16:22:53.829Z,1.00
2022-10-19T16:23:53.830Z,0.64
2022-10-19T16:24:53.831Z,2.48
2022-10-19T16:25:53.788Z,1.56
2022-10-19T16:26:54.752Z,2.00
2022-10-19T16:27:53.769Z,1.36
2022-10-19T16:28:53.831Z,0.76
2022-10-19T16:29:53.781Z,1.12
2022-10-19T16:30:54.543Z,0.48
2022-10-19T16:31:53.718Z,0.28
2022-10-19T16:32:53.698Z,0.68
2022-10-19T16:33:53.764Z,0.84
2022-10-19T16:34:54.463Z,0.40
2022-10-19T16:35:53.670Z,0.16
2022-10-19T16:36:53.654Z,0.00
2022-10-19T16:37:53.633Z,0.28
2022-10-19T16:38:54.409Z,0.00
2022-10-19T16:39:53.609Z,0.00
2022-10-19T16:40:53.603Z,0.00
2022-10-19T16:41:54.539Z,0.00
2022-10-19T16:42:53.563Z,0.16
2022-10-19T16:43:53.554Z,0.16
2022-10-19T16:44:53.552Z,0.00
2022-10-19T16:45:53.687Z,0.28
2022-10-19T16:46:53.516Z,0.16
2022-10-19T16:47:53.752Z,0.00
2022-10-19T16:48:53.556Z,0.40
2022-10-19T16:49:53.472Z,0.00
2022-10-19T16:50:53.460Z,0.00
2022-10-19T16:51:56.441Z,0.00
2022-10-19T16:52:53.461Z,0.00
2022-10-19T16:53:55.407Z,0.68
2022-10-19T16:54:53.407Z,0.12
2022-10-19T16:55:53.385Z,0.00
2022-10-19T16:56:54.188Z,0.00
2022-10-19T16:57:53.541Z,0.00
2022-10-19T16:58:53.874Z,0.00
2022-10-19T17:00:54.145Z,0.00
2022-10-19T17:01:53.368Z,0.00
2022-10-19T17:02:53.306Z,0.00
2022-10-19T17:03:53.316Z,0.00
2022-10-19T17:04:53.270Z,0.00
2022-10-19T17:05:53.261Z,0.00
2022-10-19T17:06:54.061Z,0.00
2022-10-19T17:07:53.622Z,0.00
2022-10-19T17:09:29.844Z,0.00
2022-10-19T17:09:54.973Z,0.00
2022-10-19T17:10:53.384Z,0.00
2022-10-19T17:11:53.174Z,0.00
2022-10-19T17:12:54.089Z,0.00
2022-10-19T17:13:53.964Z,0.00
2022-10-19T17:14:59.481Z,0.00
2022-10-19T17:15:59.000Z,0.00
2022-10-19T17:16:54.011Z,0.00
2022-10-19T17:17:55.201Z,0.00
2022-10-19T17:18:56.894Z,0.00
2022-10-19T17:19:59.324Z,0.00
2022-10-19T17:21:03.825Z,0.00
2022-10-19T17:22:08.063Z,0.00
2022-10-19T17:23:11.851Z,0.00
2022-10-19T17:23:59.640Z,0.00
2022-10-19T17:24:54.643Z,0.00
2022-10-19T17:26:13.739Z,0.00
2022-10-19T17:27:14.551Z,0.00
2022-10-19T17:28:24.132Z,0.00
2022-10-19T17:28:59.879Z,0.00
2022-10-19T17:30:19.059Z,0.00
2022-10-19T17:31:10.490Z,0.00
2022-10-19T17:32:50.227Z,0.00
2022-10-19T17:33:08.238Z,0.00
2022-10-19T17:33:56.858Z,0.00
2022-10-19T17:35:01.363Z,0.00
2022-10-19T17:36:27.201Z,0.00
2022-10-19T17:40:28.427Z,0.00
2022-10-19T17:40:37.156Z,0.00
2022-10-19T17:41:57.970Z,0.00
2022-10-19T17:42:42.200Z,0.00
2022-10-19T17:43:48.511Z,0.00
2022-10-19T17:45:48.386Z,0.00
2022-10-19T17:46:22.842Z,0.00
2022-10-19T17:47:21.477Z,0.00
2022-10-19T17:48:20.653Z,0.00
2022-10-19T17:49:09.010Z,0.00
2022-10-19T17:49:56.212Z,0.00
2022-10-19T17:51:10.883Z,0.00
2022-10-19T17:52:09.026Z,0.00
2022-10-19T17:53:29.284Z,0.00
2022-10-19T17:55:46.229Z,0.00
2022-10-19T17:56:00.943Z,0.00
2022-10-19T17:58:07.553Z,0.00
2022-10-19T17:58:39.923Z,0.00
2022-10-19T17:59:53.515Z,0.00
2022-10-19T18:00:22.843Z,0.00
2022-10-19T18:01:19.485Z,0.00
2022-10-19T18:02:21.197Z,0.00
2022-10-19T18:04:41.164Z,0.00
2022-10-19T18:05:32.126Z,0.00
2022-10-19T18:07:50.456Z,0.00
2022-10-19T22:04:09.968Z,0.00
2022-10-19T22:04:16.411Z,0.00
2022-10-19T22:05:14.922Z,0.00
2022-10-19T22:06:15.883Z,0.00
2022-10-19T22:07:14.896Z,0.00
2022-10-19T22:08:14.876Z,0.00
2022-10-19T22:09:15.906Z,0.00
2022-10-19T22:10:14.996Z,0.00
2022-10-19T22:11:16.839Z,0.00
2022-10-19T22:13:14.836Z,0.00